Latest Weather Observations for Albury

IDV60801

Issued at 8:32 pm EDT Sunday 24 January 2021 (issued every 10 minutes, with the page automatically refreshed every 10 minutes)

About weather observations | Map of weather stations | Latest weather observations for VIC | Other Formats
Station Details ID: 072160 Name: ALBURY AIRPORT AWS Lat: -36.07 Lon: 146.95 Height: 163.5 m
Data from the previous 72 hours. | See also: Recent months at Albury
Date/Time
EDT
Temp
°C
App
Temp
°C
Dew
Point
°C
Rel
Hum
%
Delta-T
°C
Wind Press
QNH
hPa
Press
MSL
hPa
Rain since
9am
mm
Dir  Spd
km/h
Gust
km/h
Spd
kts
Gust
kts
24/08:30pm 32.5 32.5 9.9 25 13.0 CALM 0 0 0 0 1006.5 1005.7 0.0
24/08:00pm 33.5 33.6 10.2 24 13.6 CALM 0 0 0 0 1006.3 1005.5 0.0
24/07:30pm 35.3 34.9 8.2 19 15.4 CALM 0 0 0 0 1006.3 1005.5 0.0
24/07:00pm 36.2 34.0 5.5 15 16.8 S 6 7 3 4 1006.2 1005.4 0.0
24/06:30pm 36.5 33.2 2.5 12 17.8 WSW 9 13 5 7 1006.2 1005.4 0.0
24/06:00pm 37.2 33.5 4.2 13 17.8 W 13 19 7 10 1006.3 1005.5 0.0
24/05:30pm 38.5 35.5 4.1 12 18.6 SW 9 15 5 8 1006.4 1005.6 0.0
24/05:00pm 38.6 35.9 2.9 11 19.0 S 6 13 3 7 1006.8 1006.0 0.0
24/04:30pm 38.3 33.9 2.7 11 18.8 SW 15 24 8 13 1007.1 1006.3 0.0
24/04:00pm 39.1 35.9 3.3 11 19.2 SSW 9 15 5 8 1007.4 1006.6 0.0
24/03:30pm 39.2 36.1 5.7 13 18.6 WNW 11 22 6 12 1007.7 1006.9 0.0
24/03:00pm 38.5 34.6 5.2 13 18.4 NNW 15 28 8 15 1008.0 1007.2 0.0
24/02:30pm 38.4 34.8 5.1 13 18.3 W 13 17 7 9 1008.5 1007.7 0.0
24/02:00pm 38.2 33.8 5.0 13 18.2 WSW 17 30 9 16 1008.9 1008.1 0.0
24/01:30pm 38.0 33.5 6.9 15 17.5 W 20 30 11 16 1009.5 1008.6 0.0
24/01:00pm 36.8 32.4 4.9 14 17.3 WSW 17 30 9 16 1010.1 1009.2 0.0
24/12:30pm 36.8 35.5 7.8 17 16.5 WNW 4 11 2 6 1010.5 1009.6 0.0
24/12:00pm 34.6 32.7 10.4 23 14.2 S 11 15 6 8 1010.7 1009.8 0.0
24/11:30am 32.9 31.5 10.9 26 12.9 SSE 9 13 5 7 1011.0 1010.2 0.0
24/11:00am 32.0 31.2 11.7 28 12.0 E 7 15 4 8 1011.2 1010.4 0.0
24/10:30am 29.6 29.1 12.5 35 10.1 ESE 7 11 4 6 1011.5 1010.7 0.0
24/10:00am 28.0 27.8 13.1 39 8.8 SE 6 9 3 5 1011.7 1010.9 0.0
24/09:30am 25.4 24.5 12.6 45 7.4 SE 9 11 5 6 1011.9 1011.1 0.0
24/09:00am 24.9 24.4 12.5 46 7.2 ESE 7 9 4 5 1011.9 1011.1 0.0
24/08:30am 24.4 24.2 11.7 45 7.2 E 4 7 2 4 1011.8 1011.0 0.0
24/08:00am 21.7 22.2 11.7 53 5.6 CALM 0 0 0 0 1011.6 1010.8 0.0
24/07:30am 20.1 20.5 11.1 56 5.0 CALM 0 0 0 0 1011.5 1010.7 0.0
24/07:00am 17.7 18.5 12.6 72 2.9 CALM 0 0 0 0 1011.4 1010.6 0.0
24/06:30am 17.3 18.4 13.6 79 2.1 CALM 0 0 0 0 1011.0 1010.2 0.0
24/06:00am 17.1 17.5 11.4 69 3.1 CALM 0 0 0 0 1010.6 1009.7 0.0
24/05:30am 17.9 18.4 11.5 66 3.5 CALM 0 0 0 0 1010.5 1009.6 0.0
24/05:00am 18.3 18.9 11.8 66 3.6 CALM 0 0 0 0 1010.3 1009.4 0.0
24/04:30am 18.6 18.8 10.7 60 4.3 CALM 0 0 0 0 1010.0 1009.1 0.0
24/04:00am 17.6 17.8 10.5 63 3.8 CALM 0 0 0 0 1010.1 1009.2 0.0
24/03:30am 19.2 19.5 11.0 59 4.5 CALM 0 0 0 0 1010.0 1009.1 0.0
24/03:00am 19.5 19.6 10.0 54 5.1 CALM 0 0 0 0 1010.1 1009.2 0.0
24/02:30am 20.2 20.4 10.6 54 5.3 CALM 0 0 0 0 1010.1 1009.2 0.0
24/02:00am 20.8 21.1 10.9 53 5.5 CALM 0 0 0 0 1010.3 1009.4 0.0
24/01:30am 21.9 22.1 10.7 49 6.2 CALM 0 0 0 0 1010.5 1009.6 0.0
24/01:00am 21.5 21.5 9.7 47 6.4 CALM 0 0 0 0 1010.4 1009.5 0.0
24/12:30am 23.0 21.9 10.1 44 7.1 SSE 6 7 3 4 1010.5 1009.6 0.0
24/12:00am 23.7 23.9 10.4 43 7.4 CALM 0 0 0 0 1010.7 1009.8 0.0
 
Date/Time
EDT
Temp
°C
App
Temp
°C
Dew
Point
°C
Rel
Hum
%
Delta-T
°C
Wind Press
QNH
hPa
Press
MSL
hPa
Rain since
9am
mm
Dir  Spd
km/h
Gust
km/h
Spd
kts
Gust
kts
23/11:30pm 24.1 24.2 10.0 41 7.8 CALM 0 0 0 0 1010.5 1009.6 0.0
23/11:00pm 24.8 24.6 9.1 37 8.6 CALM 0 0 0 0 1010.5 1009.6 0.0
23/10:30pm 25.2 25.1 9.5 37 8.7 CALM 0 0 0 0 1010.4 1009.5 0.0
23/10:00pm 27.1 26.6 8.0 30 10.4 CALM 0 0 0 0 1010.3 1009.4 0.0
23/09:30pm 29.0 27.0 7.0 25 11.9 NW 7 9 4 5 1009.8 1008.9 0.0
23/09:00pm 30.4 28.1 5.6 21 13.2 WSW 7 7 4 4 1009.5 1008.6 0.0
23/08:30pm 31.7 28.5 5.3 19 14.0 W 11 13 6 7 1009.0 1008.2 0.0
23/08:00pm 33.7 30.2 5.3 17 15.3 W 13 17 7 9 1008.9 1008.1 0.0
23/07:30pm 35.0 30.6 4.5 15 16.3 W 17 24 9 13 1008.7 1007.9 0.0
23/07:00pm 35.8 31.3 4.2 14 16.9 WNW 17 20 9 11 1008.7 1007.9 0.0
23/06:30pm 36.3 31.7 3.5 13 17.4 WNW 17 28 9 15 1008.4 1007.6 0.0
23/06:00pm 36.4 31.4 3.6 13 17.4 WNW 19 30 10 16 1008.4 1007.6 0.0
23/05:30pm 36.9 32.7 4.0 13 17.6 W 15 32 8 17 1008.3 1007.5 0.0
23/05:00pm 36.5 31.3 3.7 13 17.5 WNW 20 32 11 17 1008.5 1007.7 0.0
23/04:30pm 36.7 31.9 4.9 14 17.3 WSW 19 28 10 15 1008.7 1007.9 0.0
23/04:00pm 36.3 31.1 3.5 13 17.4 NW 20 37 11 20 1009.1 1008.3 0.0
23/03:30pm 36.2 31.2 3.4 13 17.3 WNW 19 30 10 16 1009.4 1008.5 0.0
23/03:00pm 36.1 30.3 4.4 14 17.0 W 24 33 13 18 1009.7 1008.8 0.0
23/02:30pm 35.9 32.3 5.2 15 16.7 WNW 13 24 7 13 1009.9 1009.0 0.0
23/02:00pm 35.2 31.7 5.6 16 16.1 WSW 13 20 7 11 1010.2 1009.3 0.0
23/01:30pm 35.4 30.5 3.9 14 16.7 WNW 19 30 10 16 1010.6 1009.7 0.0
23/01:00pm 34.8 30.0 4.4 15 16.2 WSW 19 26 10 14 1011.0 1010.2 0.0
23/12:30pm 33.8 32.5 7.7 20 14.6 E 4 7 2 4 1011.4 1010.6 0.0
23/12:00pm 33.2 31.9 9.3 23 13.7 NNE 6 9 3 5 1011.6 1010.8 0.0
23/11:30am 31.5 30.2 9.1 25 12.7 ENE 6 13 3 7 1011.9 1011.1 0.0
23/11:00am 30.4 30.0 9.8 28 11.7 ENE 2 6 1 3 1012.1 1011.3 0.0
23/10:30am 28.2 27.7 10.9 34 9.9 ESE 4 9 2 5 1012.2 1011.4 0.0
23/10:00am 26.7 26.5 10.4 36 9.2 SW 2 7 1 4 1012.2 1011.4 0.0
23/09:30am 25.6 24.8 9.8 37 8.8 E 4 9 2 5 1012.3 1011.5 0.0
23/09:00am 24.0 22.9 9.9 41 7.8 ENE 6 9 3 5 1012.2 1011.4 0.0
23/08:30am 21.6 21.1 7.8 41 7.2 CALM 0 2 0 1 1011.9 1011.1 0.0
23/08:00am 21.3 20.7 7.2 40 7.3 CALM 0 0 0 0 1011.6 1010.8 0.0
23/07:30am 18.8 18.0 6.6 45 6.1 CALM 0 0 0 0 1011.2 1010.4 0.0
23/07:00am 16.6 16.0 7.5 55 4.6 CALM 0 0 0 0 1010.8 1010.0 0.0
23/06:30am 15.4 14.9 7.9 61 3.8 CALM 0 0 0 0 1010.3 1009.4 0.0
23/06:00am 15.8 15.2 7.3 57 4.3 CALM 0 0 0 0 1009.8 1008.9 0.0
23/05:30am 15.1 14.2 6.1 55 4.4 CALM 0 0 0 0 1009.5 1008.6 0.0
23/05:00am 16.8 16.0 6.6 51 5.1 CALM 0 0 0 0 1009.1 1008.3 0.0
23/04:30am 17.2 16.4 6.4 49 5.4 CALM 0 0 0 0 1008.9 1008.1 0.0
23/04:00am 17.2 16.3 6.1 48 5.5 CALM 0 0 0 0 1008.7 1007.9 0.0
23/03:30am 18.5 17.5 5.7 43 6.3 CALM 0 0 0 0 1008.5 1007.7 0.0
23/03:00am 18.3 17.2 5.2 42 6.4 CALM 0 0 0 0 1008.4 1007.6 0.0
23/02:30am 19.8 18.2 4.7 37 7.4 NW 2 7 1 4 1008.5 1007.7 0.0
23/02:00am 20.1 18.7 3.8 34 7.9 CALM 0 0 0 0 1008.6 1007.8 0.0
23/01:30am 18.2 17.0 4.7 41 6.5 CALM 0 0 0 0 1008.6 1007.8 0.0
23/01:00am 19.4 17.8 6.5 43 6.5 SE 4 7 2 4 1008.6 1007.8 0.0
23/12:30am 19.4 18.5 6.2 42 6.6 CALM 0 0 0 0 1008.5 1007.7 0.0
23/12:00am 21.3 19.2 6.8 39 7.5 SSE 7 9 4 5 1008.4 1007.6 0.0
 
Date/Time
EDT
Temp
°C
App
Temp
°C
Dew
Point
°C
Rel
Hum
%
Delta-T
°C
Wind Press
QNH
hPa
Press
MSL
hPa
Rain since
9am
mm
Dir  Spd
km/h
Gust
km/h
Spd
kts
Gust
kts
22/11:30pm 21.9 20.2 2.1 27 9.3 CALM 0 0 0 0 1008.2 1007.4 0.0
22/11:00pm 21.5 20.3 4.6 33 8.4 CALM 0 0 0 0 1008.1 1007.3 0.0
22/10:30pm 24.9 23.2 1.7 22 11.1 CALM 0 0 0 0 1007.9 1007.1 0.0
22/10:00pm 25.3 23.3 0.0 19 11.8 CALM 0 0 0 0 1007.7 1006.9 0.0
22/09:30pm 28.4 24.6 -3.7 12 14.3 W 7 9 4 5 1007.3 1006.5 0.0
22/09:00pm 29.9 25.7 -3.7 11 15.2 W 9 9 5 5 1007.0 1006.2 0.0
22/08:30pm 30.2 25.1 -4.8 10 15.5 W 13 17 7 9 1006.8 1006.0 0.0
22/08:00pm 33.1 27.6 -5.5 8 17.4 W 15 20 8 11 1006.5 1005.7 0.0
22/07:30pm 34.4 28.6 -4.6 8 17.9 W 17 24 9 13 1006.0 1005.2 0.0
22/07:00pm 35.3 29.6 -3.9 8 18.4 W 17 22 9 12 1005.8 1005.0 0.0
22/06:30pm 35.8 29.2 -3.5 8 18.6 WNW 22 32 12 17 1005.8 1005.0 0.0
22/06:00pm 36.3 30.5 -1.6 9 18.6 W 19 26 10 14 1005.7 1004.9 0.0
22/05:30pm 36.5 30.3 -3.0 8 18.9 WNW 20 30 11 16 1005.7 1004.9 0.0
22/05:00pm 36.8 30.5 -1.2 9 18.8 W 22 28 12 15 1005.8 1005.0 0.0
22/04:30pm 35.9 30.0 -0.5 10 18.1 W 20 30 11 16 1005.9 1005.1 0.0
22/04:00pm 36.0 29.4 -0.4 10 18.2 W 24 33 13 18 1006.1 1005.3 0.0
22/03:30pm 35.6 30.5 0.6 11 17.6 WSW 17 28 9 15 1006.2 1005.4 0.0
22/03:00pm 35.3 29.2 0.4 11 17.5 WSW 22 35 12 19 1006.5 1005.7 0.0
22/02:30pm 35.1 29.4 2.6 13 16.9 WSW 22 35 12 19 1006.8 1006.0 0.0
22/02:00pm 35.4 30.8 1.7 12 17.3 WSW 15 28 8 15 1007.1 1006.3 0.0
22/01:30pm 35.8 30.3 4.2 14 16.9 WSW 22 35 12 19 1007.3 1006.5 0.0
22/01:00pm 34.5 31.2 9.7 22 14.4 WSW 17 28 9 15 1007.8 1007.0 0.0
22/12:30pm 33.6 30.4 8.3 21 14.3 NNW 15 26 8 14 1008.1 1007.3 0.0
22/12:00pm 33.3 31.7 8.7 22 14.0 N 7 15 4 8 1008.4 1007.6 0.0
22/11:30am 32.3 29.8 9.8 25 12.9 NNW 13 20 7 11 1008.8 1008.0 0.0
22/11:00am 31.1 29.5 11.5 30 11.5 N 11 20 6 11 1009.1 1008.3 0.0
22/10:30am 29.5 27.8 11.1 32 10.6 N 11 17 6 9 1009.5 1008.6 0.0
22/10:00am 28.5 27.7 11.1 34 10.0 N 6 15 3 8 1009.7 1008.8 0.0
22/09:30am 26.2 27.0 13.7 46 7.4 SSE 2 9 1 5 1010.0 1009.1 0.0
22/09:00am 23.7 23.7 13.6 53 5.9 SSE 6 9 3 5 1010.2 1009.3 0.0
22/08:30am 23.3 23.8 12.9 52 6.0 ESE 2 7 1 4 1010.3 1009.4 0.0
22/08:00am 20.4 20.7 12.1 59 4.7 SSE 2 7 1 4 1010.3 1009.4 0.0
22/07:30am 19.4 20.0 11.9 62 4.2 CALM 0 0 0 0 1010.2 1009.3 0.0
22/07:00am 16.9 16.7 13.0 78 2.2 S 6 9 3 5 1009.9 1009.0 0.0
22/06:30am 17.1 16.8 12.6 75 2.5 ESE 6 7 3 4 1009.6 1008.7 0.0
22/06:00am 16.5 16.5 12.5 77 2.2 ENE 4 7 2 4 1009.1 1008.3 0.0
22/05:30am 16.8 17.8 13.1 79 2.1 CALM 0 0 0 0 1008.9 1008.1 0.0
22/05:00am 17.5 17.6 12.6 73 2.7 NE 4 7 2 4 1008.7 1007.9 0.0
22/04:30am 17.3 17.9 12.0 71 2.9 CALM 0 0 0 0 1008.5 1007.7 0.0
22/04:00am 18.2 18.7 11.7 66 3.6 CALM 0 0 0 0 1008.3 1007.5 0.0
22/03:30am 19.3 19.9 11.8 62 4.2 CALM 0 0 0 0 1008.3 1007.5 0.0
22/03:00am 19.4 19.2 11.7 61 4.3 NNE 4 7 2 4 1008.5 1007.7 0.0
22/02:30am 19.6 19.9 12.1 62 4.2 ENE 2 6 1 3 1008.6 1007.8 0.0
22/02:00am 19.8 19.2 11.8 60 4.5 SSE 6 7 3 4 1008.6 1007.8 0.0
22/01:30am 19.8 19.9 11.6 59 4.6 E 2 7 1 4 1008.7 1007.9 0.0
22/01:00am 20.9 21.4 11.5 55 5.3 CALM 0 0 0 0 1008.8 1008.0 0.0
22/12:30am 21.5 22.0 11.5 53 5.6 CALM 0 0 0 0 1008.7 1007.9 0.0
22/12:00am 23.4 23.0 11.1 46 6.9 ESE 4 6 2 3 1008.9 1008.1 0.0
 
Date/Time
EDT
Temp
°C
App
Temp
°C
Dew
Point
°C
Rel
Hum
%
Delta-T
°C
Wind Press
QNH
hPa
Press
MSL
hPa
Rain since
9am
mm
Dir  Spd
km/h
Gust
km/h
Spd
kts
Gust
kts
21/11:30pm 23.3 22.9 12.3 50 6.3 E 6 11 3 6 1009.1 1008.3 0.0
21/11:00pm 22.9 22.7 11.9 50 6.3 NNW 4 6 2 3 1009.1 1008.3 0.0
21/10:30pm 23.7 24.5 12.7 50 6.4 CALM 0 0 0 0 1009.0 1008.2 0.0
21/10:00pm 25.0 25.5 11.6 43 7.7 CALM 0 0 0 0 1009.0 1008.2 0.0
21/09:30pm 26.4 26.7 10.9 38 8.8 CALM 0 0 0 0 1008.9 1008.1 0.0
21/09:00pm 27.7 26.5 9.5 32 10.2 SE 6 7 3 4 1008.6 1007.8 0.0

Other formats

Comma delimited format used in spreadsheet applications
http://www.bom.gov.au/fwo/IDV60801/IDV60801.95896.axf

JavaScript Object Notation format (JSON) in row-major order
http://www.bom.gov.au/fwo/IDV60801/IDV60801.95896.json

Data quality

Most of these data are generated automatically and are frequently updated. Quality checks on data are not normally performed. It is possible for incorrect values to appear. Refer to information at About Latest Weather Observations and please check the disclaimer before using these data.